Orting, Washington
Current Conditions -  °F | °C
As of 8:58 PM on Tuesday 21 Oct 2014 (Local Time) from KTCM Reporting Station
Overcast Overcast  
Wind Chill: 59°   Ceiling: 7500
Heat Index: 59°   Visibility: 10mi
Dew Point: 48°   Wind: 12mph
Humidity: 67%   Direction: 170°S
Pressure: 29.81"   Gusts: NA
Location:  47.1°N, 122.2°W
Report Text: KTCM 220358Z AUTO 17010KT 10SM BKN075 OVC095 15/09 A2981 RMK AO2 SLP098 T01490088 $
Loading
Personal Weather Stations






























Interactive Weather Map
Tropical Storm Tracking
New forecast layout! Learn more

10-Day Weather Forecast

Advertisements
Track Severe Weather on mobile